createdAt,value
2023-05-24T00:02:08.682Z,100.00
2023-05-24T00:04:35.357Z,100.00
2023-05-24T00:07:04.869Z,100.00
2023-05-24T00:09:31.532Z,100.00
2023-05-24T00:11:58.837Z,100.00
2023-05-24T00:14:25.781Z,100.00
2023-05-24T00:16:52.559Z,100.00
2023-05-24T00:19:22.894Z,100.00
2023-05-24T00:21:50.199Z,100.00
2023-05-24T00:24:17.553Z,100.00
2023-05-24T00:26:45.272Z,100.00
2023-05-24T00:29:11.895Z,100.00
2023-05-24T00:31:38.784Z,100.00
2023-05-24T00:34:05.728Z,100.00
2023-05-24T00:36:33.209Z,100.00
2023-05-24T00:39:00.176Z,100.00
2023-05-24T00:41:26.998Z,100.00
2023-05-24T00:43:53.635Z,100.00
2023-05-24T00:46:32.574Z,100.00
2023-05-24T00:49:00.493Z,100.00
2023-05-24T00:51:28.063Z,100.00
2023-05-24T00:53:55.432Z,100.00
2023-05-24T00:56:22.666Z,100.00
2023-05-24T00:58:50.886Z,100.00
2023-05-24T01:01:17.555Z,100.00
2023-05-24T01:03:44.337Z,100.00
2023-05-24T01:06:16.106Z,100.00
2023-05-24T01:08:50.483Z,100.00
2023-05-24T01:11:37.611Z,100.00
2023-05-24T01:14:38.282Z,100.00
2023-05-24T01:17:09.475Z,100.00
2023-05-24T01:19:51.369Z,100.00
2023-05-24T01:22:35.985Z,100.00
2023-05-24T01:25:11.504Z,100.00
2023-05-24T01:27:38.879Z,100.00
2023-05-24T01:30:07.302Z,100.00
2023-05-24T01:32:34.462Z,100.00
2023-05-24T01:35:01.182Z,100.00
2023-05-24T01:37:27.834Z,100.00
2023-05-24T01:39:55.126Z,100.00
2023-05-24T01:42:33.204Z,100.00
2023-05-24T01:45:12.046Z,100.00
2023-05-24T01:47:45.539Z,100.00
2023-05-24T01:50:48.169Z,100.00
2023-05-24T01:53:19.459Z,100.00
2023-05-24T01:55:49.441Z,100.00
2023-05-24T01:58:17.469Z,100.00
2023-05-24T02:00:45.691Z,100.00
2023-05-24T02:03:14.853Z,100.00
2023-05-24T02:05:41.593Z,100.00
2023-05-24T02:08:09.002Z,100.00
2023-05-24T02:10:38.569Z,100.00
2023-05-24T02:13:06.158Z,100.00
2023-05-24T02:15:33.216Z,100.00
2023-05-24T02:18:01.440Z,100.00
2023-05-24T02:20:32.144Z,100.00
2023-05-24T02:22:58.780Z,100.00
2023-05-24T02:25:25.654Z,100.00
2023-05-24T02:27:52.364Z,100.00
2023-05-24T02:30:19.168Z,100.00
2023-05-24T02:32:46.536Z,100.00
2023-05-24T02:35:13.294Z,100.00
2023-05-24T02:37:40.678Z,100.00
2023-05-24T02:40:07.961Z,100.00
2023-05-24T02:42:34.758Z,100.00
2023-05-24T02:45:01.411Z,100.00
2023-05-24T02:47:28.462Z,100.00
2023-05-24T02:49:56.223Z,100.00
2023-05-24T02:52:23.416Z,100.00
2023-05-24T02:54:50.479Z,100.00
2023-05-24T02:57:17.125Z,100.00
2023-05-24T02:59:43.960Z,100.00
2023-05-24T03:02:13.785Z,100.00
2023-05-24T03:04:40.556Z,100.00
2023-05-24T03:07:07.311Z,100.00
2023-05-24T03:09:33.958Z,100.00
2023-05-24T03:12:00.748Z,100.00
2023-05-24T03:14:27.377Z,100.00
2023-05-24T03:16:54.019Z,100.00
2023-05-24T03:19:20.696Z,100.00
2023-05-24T03:21:47.343Z,100.00
2023-05-24T03:24:14.339Z,100.00
2023-05-24T03:26:41.167Z,100.00
2023-05-24T03:29:07.796Z,100.00
2023-05-24T03:31:34.540Z,100.00
2023-05-24T03:34:01.413Z,100.00
2023-05-24T03:36:29.184Z,100.00
2023-05-24T03:38:58.382Z,100.00
2023-05-24T03:41:25.442Z,100.00
2023-05-24T03:43:52.696Z,100.00
2023-05-24T03:46:19.603Z,100.00
2023-05-24T03:48:46.390Z,100.00
2023-05-24T03:51:13.089Z,100.00
2023-05-24T03:53:39.698Z,100.00
2023-05-24T03:56:06.586Z,100.00
2023-05-24T03:58:33.336Z,100.00
2023-05-24T04:01:01.871Z,100.00
2023-05-24T04:03:28.654Z,100.00
2023-05-24T04:05:55.329Z,100.00
2023-05-24T04:08:22.284Z,100.00
2023-05-24T04:10:48.888Z,100.00
2023-05-24T04:13:15.555Z,100.00
2023-05-24T04:15:42.254Z,100.00
2023-05-24T04:18:09.041Z,100.00
2023-05-24T04:20:35.995Z,100.00
2023-05-24T04:23:02.720Z,100.00
2023-05-24T04:25:30.187Z,100.00
2023-05-24T04:27:57.221Z,100.00
2023-05-24T04:30:23.907Z,100.00
2023-05-24T04:32:51.414Z,100.00
2023-05-24T04:35:18.248Z,100.00
2023-05-24T04:37:45.101Z,100.00
2023-05-24T04:40:12.418Z,100.00
2023-05-24T04:42:39.291Z,100.00
2023-05-24T04:45:07.095Z,100.00
2023-05-24T04:47:33.904Z,100.00
2023-05-24T04:50:00.561Z,100.00
2023-05-24T04:52:27.820Z,100.00
2023-05-24T04:54:55.565Z,100.00
2023-05-24T04:57:22.334Z,100.00
2023-05-24T04:59:48.996Z,100.00
2023-05-24T05:02:15.767Z,99.63
2023-05-24T05:04:42.541Z,99.33
2023-05-24T05:07:09.164Z,100.00
2023-05-24T05:09:35.935Z,97.71
2023-05-24T05:12:03.002Z,98.31
2023-05-24T05:14:29.702Z,99.19
2023-05-24T05:16:56.575Z,97.43
2023-05-24T05:19:23.290Z,96.32
2023-05-24T05:21:49.948Z,97.21
2023-05-24T05:24:17.305Z,95.17
2023-05-24T05:26:44.053Z,93.35
2023-05-24T05:29:10.704Z,93.80
2023-05-24T05:31:37.336Z,93.58
2023-05-24T05:34:03.963Z,94.42
2023-05-24T05:36:31.157Z,95.20
2023-05-24T05:38:57.729Z,94.95
2023-05-24T05:41:24.320Z,95.37
2023-05-24T05:43:50.940Z,94.36
2023-05-24T05:46:20.519Z,90.48
2023-05-24T05:48:47.614Z,89.89
2023-05-24T05:51:14.252Z,86.04
2023-05-24T05:53:40.851Z,88.06
2023-05-24T05:56:07.723Z,85.02
2023-05-24T05:58:34.319Z,83.30
2023-05-24T06:01:00.999Z,84.92
2023-05-24T06:03:27.779Z,82.68
2023-05-24T06:05:54.541Z,83.04
2023-05-24T06:08:21.224Z,85.06
2023-05-24T06:10:48.280Z,83.84
2023-05-24T06:13:15.508Z,82.83
2023-05-24T06:15:42.225Z,84.42
2023-05-24T06:18:08.883Z,82.61
2023-05-24T06:20:36.927Z,83.15
2023-05-24T06:23:03.758Z,82.11
2023-05-24T06:25:30.923Z,83.11
2023-05-24T06:27:57.691Z,79.76
2023-05-24T06:30:24.433Z,80.69
2023-05-24T06:32:51.222Z,82.99
2023-05-24T06:35:17.963Z,79.46
2023-05-24T06:37:44.609Z,80.96
2023-05-24T06:40:11.907Z,80.97
2023-05-24T06:42:39.900Z,81.83
2023-05-24T06:45:08.407Z,81.12
2023-05-24T06:47:35.490Z,80.64
2023-05-24T06:50:04.406Z,79.46
2023-05-24T06:52:31.296Z,79.95
2023-05-24T06:54:57.944Z,78.76
2023-05-24T06:57:25.270Z,81.20
2023-05-24T06:59:52.055Z,77.28
2023-05-24T07:02:18.836Z,79.06
2023-05-24T07:04:45.973Z,77.31
2023-05-24T07:07:13.705Z,75.17
2023-05-24T07:09:42.220Z,75.34
2023-05-24T07:12:09.360Z,74.24
2023-05-24T07:14:36.182Z,73.69
2023-05-24T07:17:02.957Z,74.69
2023-05-24T07:19:29.999Z,75.13
2023-05-24T07:21:57.086Z,75.21
2023-05-24T07:24:24.260Z,77.15
2023-05-24T07:26:52.157Z,74.04
2023-05-24T07:29:18.768Z,72.43
2023-05-24T07:31:45.548Z,75.09
2023-05-24T07:34:12.185Z,72.09
2023-05-24T07:36:38.745Z,74.23
2023-05-24T07:39:06.388Z,73.69
2023-05-24T07:41:33.595Z,72.48
2023-05-24T07:44:00.460Z,72.31
2023-05-24T07:46:27.198Z,72.04
2023-05-24T07:48:53.943Z,71.54
2023-05-24T07:51:21.586Z,72.22
2023-05-24T07:53:48.247Z,72.15
2023-05-24T07:56:15.162Z,72.88
2023-05-24T07:58:44.073Z,73.08
2023-05-24T08:01:10.769Z,73.04
2023-05-24T08:03:38.255Z,74.93
2023-05-24T08:06:05.707Z,70.92
2023-05-24T08:08:32.269Z,71.33
2023-05-24T08:10:58.910Z,69.73
2023-05-24T08:13:25.506Z,69.55
2023-05-24T08:15:52.089Z,75.84
2023-05-24T08:18:19.139Z,70.68
2023-05-24T08:20:46.255Z,68.21
2023-05-24T08:23:13.171Z,67.94
2023-05-24T08:25:40.554Z,68.31
2023-05-24T08:28:08.655Z,69.57
2023-05-24T08:30:35.346Z,68.65
2023-05-24T08:33:02.119Z,68.53
2023-05-24T08:35:29.273Z,69.42
2023-05-24T08:37:56.507Z,67.82
2023-05-24T08:40:25.012Z,68.72
2023-05-24T08:42:52.870Z,70.42
2023-05-24T08:45:21.812Z,66.72
2023-05-24T08:47:50.411Z,64.91
2023-05-24T08:50:18.221Z,66.37
2023-05-24T08:52:46.371Z,63.75
2023-05-24T08:55:13.455Z,65.86
2023-05-24T08:57:41.466Z,66.36
2023-05-24T09:00:12.755Z,66.44
2023-05-24T09:02:42.167Z,63.03
2023-05-24T09:05:11.681Z,65.09
2023-05-24T09:07:38.569Z,62.95
2023-05-24T09:10:07.369Z,62.28
2023-05-24T09:12:38.732Z,64.33
2023-05-24T09:15:08.132Z,63.08
2023-05-24T09:17:36.768Z,62.89
2023-05-24T09:20:06.986Z,62.46
2023-05-24T09:22:35.772Z,60.74
2023-05-24T09:25:05.892Z,61.07
2023-05-24T09:27:34.466Z,60.99
2023-05-24T09:30:03.428Z,60.15
2023-05-24T09:32:31.380Z,61.15
2023-05-24T09:37:32.766Z,57.65
2023-05-24T09:40:00.152Z,54.76
2023-05-24T09:42:28.885Z,56.15
2023-05-24T09:45:04.930Z,57.81
2023-05-24T09:47:33.418Z,51.37
2023-05-24T09:50:01.526Z,56.96
2023-05-24T09:52:28.345Z,58.67
2023-05-24T09:54:55.434Z,53.92
2023-05-24T09:57:25.920Z,52.10
2023-05-24T09:59:53.042Z,53.72
2023-05-24T10:02:22.938Z,53.98
2023-05-24T10:04:57.711Z,51.70
2023-05-24T10:07:24.895Z,50.21
2023-05-24T10:09:52.051Z,52.56
2023-05-24T10:12:23.077Z,50.61
2023-05-24T10:14:51.110Z,49.73
2023-05-24T10:17:18.113Z,53.68
2023-05-24T10:19:45.027Z,52.26
2023-05-24T10:22:14.248Z,49.45
2023-05-24T10:24:46.535Z,49.73
2023-05-24T10:27:17.598Z,49.53
2023-05-24T10:29:47.081Z,50.71
2023-05-24T10:32:16.739Z,49.94
2023-05-24T10:34:44.731Z,53.60
2023-05-24T10:37:11.473Z,50.48
2023-05-24T10:39:38.359Z,50.08
2023-05-24T10:42:09.392Z,49.00
2023-05-24T10:44:37.282Z,48.94
2023-05-24T10:47:10.944Z,47.74
2023-05-24T10:49:39.880Z,47.46
2023-05-24T10:52:10.626Z,49.40
2023-05-24T10:54:39.988Z,46.24
2023-05-24T10:57:09.640Z,47.85
2023-05-24T10:59:39.797Z,47.98
2023-05-24T11:02:16.301Z,48.59
2023-05-24T11:04:46.677Z,49.58
2023-05-24T11:07:19.280Z,47.23
2023-05-24T11:09:52.863Z,45.07
2023-05-24T11:12:23.792Z,46.79
2023-05-24T11:14:52.549Z,46.06
2023-05-24T11:17:22.272Z,47.79
2023-05-24T11:19:54.522Z,44.89
2023-05-24T11:22:22.960Z,43.44
2023-05-24T11:24:50.135Z,45.26
2023-05-24T11:27:17.262Z,44.62
2023-05-24T11:29:45.532Z,45.09
2023-05-24T11:32:20.673Z,45.37
2023-05-24T11:34:48.353Z,44.56
2023-05-24T11:37:17.939Z,43.92
2023-05-24T11:39:51.001Z,44.03
2023-05-24T11:42:17.754Z,43.86
2023-05-24T11:44:44.616Z,43.89
2023-05-24T11:47:13.269Z,44.11
2023-05-24T11:49:39.894Z,45.71
2023-05-24T11:52:07.491Z,44.66
2023-05-24T11:54:35.087Z,45.37
2023-05-24T11:57:02.224Z,44.47
2023-05-24T11:59:29.602Z,44.41
2023-05-24T12:02:06.797Z,47.43
2023-05-24T12:04:34.955Z,46.35
2023-05-24T12:07:02.180Z,46.12
2023-05-24T12:09:29.421Z,46.08
2023-05-24T12:11:58.394Z,46.29
2023-05-24T12:14:28.571Z,46.37
2023-05-24T12:16:57.117Z,44.06
2023-05-24T12:19:33.044Z,44.12
2023-05-24T12:22:01.535Z,44.28
2023-05-24T12:24:28.517Z,45.45
2023-05-24T12:27:06.929Z,44.96
2023-05-24T12:29:39.804Z,43.12
2023-05-24T12:32:12.465Z,44.42
2023-05-24T12:34:43.722Z,43.45
2023-05-24T12:37:13.205Z,42.40
2023-05-24T12:39:42.806Z,42.45
2023-05-24T12:42:10.827Z,40.87
2023-05-24T12:44:38.370Z,42.55
2023-05-24T12:47:07.553Z,43.89
2023-05-24T12:49:34.692Z,41.28
2023-05-24T12:52:04.045Z,43.25
2023-05-24T12:54:31.003Z,42.62
2023-05-24T12:56:59.907Z,43.07
2023-05-24T12:59:28.776Z,42.27
2023-05-24T13:01:56.109Z,41.09
2023-05-24T13:04:26.203Z,41.66
2023-05-24T13:06:53.307Z,40.95
2023-05-24T13:09:21.952Z,42.03
2023-05-24T13:11:48.927Z,42.46
2023-05-24T13:14:16.794Z,42.35
2023-05-24T13:16:44.415Z,42.21
2023-05-24T13:19:11.954Z,42.42
2023-05-24T13:21:39.153Z,44.56
2023-05-24T13:24:06.620Z,42.57
2023-05-24T13:26:38.182Z,43.47
2023-05-24T13:31:37.720Z,45.42
2023-05-24T13:34:04.988Z,40.57
2023-05-24T13:36:31.714Z,41.80
2023-05-24T13:39:14.295Z,40.96
2023-05-24T13:41:43.758Z,42.03
2023-05-24T13:44:11.093Z,41.28
2023-05-24T13:46:38.501Z,40.38
2023-05-24T13:49:06.162Z,40.94
2023-05-24T13:51:33.387Z,41.18
2023-05-24T13:54:00.547Z,40.57
2023-05-24T13:56:32.867Z,40.39
2023-05-24T13:59:04.573Z,40.28
2023-05-24T14:01:32.009Z,41.62
2023-05-24T14:04:00.042Z,40.60
2023-05-24T14:06:26.688Z,41.25
2023-05-24T14:08:53.642Z,42.33
2023-05-24T14:11:20.354Z,41.14
2023-05-24T14:16:18.270Z,40.71
2023-05-24T14:18:45.834Z,42.91
2023-05-24T14:21:12.440Z,39.87
2023-05-24T14:23:39.169Z,39.83
2023-05-24T14:26:05.824Z,40.08
2023-05-24T14:28:32.431Z,40.41
2023-05-24T14:30:59.008Z,41.55
2023-05-24T14:33:25.705Z,41.76
2023-05-24T14:35:52.403Z,42.25
2023-05-24T14:38:19.036Z,41.95
2023-05-24T14:40:48.197Z,41.43
2023-05-24T14:43:15.147Z,45.20
2023-05-24T14:45:42.752Z,39.76
2023-05-24T14:48:11.465Z,40.92
2023-05-24T14:50:39.746Z,39.72
2023-05-24T14:53:12.016Z,38.50
2023-05-24T14:55:41.810Z,38.34
2023-05-24T14:58:09.461Z,37.76
2023-05-24T15:00:36.952Z,37.88
2023-05-24T15:03:05.805Z,35.99
2023-05-24T15:05:33.117Z,36.72
2023-05-24T15:07:59.891Z,37.47
2023-05-24T15:10:26.753Z,36.77
2023-05-24T15:12:53.473Z,36.36
2023-05-24T15:15:22.566Z,36.69
2023-05-24T15:17:49.599Z,37.53
2023-05-24T15:20:16.484Z,38.51
2023-05-24T15:22:43.329Z,38.88
2023-05-24T15:25:10.715Z,39.71
2023-05-24T15:27:37.969Z,39.22
2023-05-24T15:30:05.111Z,39.67
2023-05-24T15:32:31.784Z,40.18
2023-05-24T15:35:00.534Z,41.61
2023-05-24T15:37:27.531Z,40.78
2023-05-24T15:39:54.359Z,40.22
2023-05-24T15:42:21.855Z,40.21
2023-05-24T15:44:48.477Z,40.73
2023-05-24T15:47:15.103Z,41.11
2023-05-24T15:49:41.738Z,41.07
2023-05-24T15:52:10.097Z,41.41
2023-05-24T15:54:37.991Z,40.48
2023-05-24T15:57:04.863Z,41.98
2023-05-24T15:59:31.450Z,40.14
2023-05-24T16:01:58.058Z,41.33
2023-05-24T16:04:24.707Z,39.94
2023-05-24T16:06:51.370Z,40.70
2023-05-24T16:09:18.016Z,39.63
2023-05-24T16:11:44.678Z,40.21
2023-05-24T16:14:11.477Z,41.19
2023-05-24T16:16:38.384Z,38.89
2023-05-24T16:19:05.047Z,39.08
2023-05-24T16:21:32.943Z,37.85
2023-05-24T16:24:01.877Z,37.24
2023-05-24T16:26:30.753Z,36.42
2023-05-24T16:28:57.610Z,37.71
2023-05-24T16:31:24.443Z,37.26
2023-05-24T16:33:51.161Z,36.52
2023-05-24T16:36:17.779Z,35.97
2023-05-24T16:38:44.382Z,36.93
2023-05-24T16:41:11.282Z,36.27
2023-05-24T16:43:37.908Z,36.52
2023-05-24T16:46:04.584Z,36.99
2023-05-24T16:48:31.795Z,37.24
2023-05-24T16:50:58.935Z,37.43
2023-05-24T16:53:26.877Z,37.12
2023-05-24T16:55:55.799Z,37.19
2023-05-24T16:58:29.863Z,36.38
2023-05-24T17:00:56.817Z,36.94
2023-05-24T17:03:33.981Z,37.47
2023-05-24T17:06:03.236Z,38.35
2023-05-24T17:08:35.633Z,38.77
2023-05-24T17:11:03.739Z,40.01
2023-05-24T17:13:30.756Z,40.70
2023-05-24T17:15:58.431Z,40.77
2023-05-24T17:18:29.368Z,40.65
2023-05-24T17:21:01.340Z,42.18
2023-05-24T17:23:31.032Z,42.95
2023-05-24T17:25:57.969Z,43.98
2023-05-24T17:28:28.581Z,45.29
2023-05-24T17:30:56.822Z,45.63
2023-05-24T17:33:24.369Z,46.66
2023-05-24T17:35:51.157Z,46.33
2023-05-24T17:38:18.460Z,47.15
2023-05-24T17:40:49.112Z,48.61
2023-05-24T17:43:15.702Z,49.00
2023-05-24T17:45:42.608Z,49.23
2023-05-24T17:48:09.450Z,50.06
2023-05-24T17:50:36.363Z,51.82
2023-05-24T17:53:06.048Z,51.51
2023-05-24T17:55:37.529Z,51.99
2023-05-24T17:58:04.248Z,51.94
2023-05-24T18:00:31.524Z,52.58
2023-05-24T18:03:00.311Z,53.31
2023-05-24T18:05:27.120Z,53.41
2023-05-24T18:07:53.750Z,53.21
2023-05-24T18:10:20.709Z,54.66
2023-05-24T18:12:47.897Z,56.32
2023-05-24T18:15:14.687Z,56.86
2023-05-24T18:17:41.653Z,57.76
2023-05-24T18:20:08.704Z,58.58
2023-05-24T18:22:35.403Z,58.82
2023-05-24T18:25:02.196Z,59.31
2023-05-24T18:27:28.781Z,58.96
2023-05-24T18:29:55.450Z,59.43
2023-05-24T18:32:22.060Z,60.14
2023-05-24T18:34:49.369Z,59.92
2023-05-24T18:37:16.362Z,60.28
2023-05-24T18:39:42.932Z,60.69
2023-05-24T18:42:09.703Z,60.75
2023-05-24T18:44:37.976Z,61.42
2023-05-24T18:47:05.283Z,62.43
2023-05-24T18:49:35.132Z,62.53
2023-05-24T18:52:04.901Z,62.27
2023-05-24T18:54:31.523Z,62.57
2023-05-24T18:57:00.034Z,62.60
2023-05-24T18:59:29.245Z,63.14
2023-05-24T19:01:55.905Z,63.70
2023-05-24T19:04:22.605Z,63.40
2023-05-24T19:06:50.244Z,62.56
2023-05-24T19:09:16.826Z,62.64
2023-05-24T19:11:47.706Z,64.84
2023-05-24T19:14:14.364Z,64.21
2023-05-24T19:16:41.047Z,64.59
2023-05-24T19:19:07.693Z,66.11
2023-05-24T19:21:34.275Z,65.65
2023-05-24T19:24:00.850Z,64.96
2023-05-24T19:26:27.551Z,65.93
2023-05-24T19:28:54.218Z,68.03
2023-05-24T19:31:24.862Z,68.00
2023-05-24T19:36:25.673Z,70.28
2023-05-24T19:38:52.652Z,69.75
2023-05-24T19:41:19.245Z,69.48
2023-05-24T19:43:45.836Z,69.55
2023-05-24T19:46:14.744Z,70.69
2023-05-24T19:48:42.312Z,71.53
2023-05-24T19:51:09.091Z,71.02
2023-05-24T19:53:35.728Z,70.11
2023-05-24T19:56:02.641Z,71.09
2023-05-24T19:58:30.339Z,72.13
2023-05-24T20:00:56.930Z,72.43
2023-05-24T20:03:24.704Z,73.48
2023-05-24T20:05:51.625Z,74.07
2023-05-24T20:08:20.845Z,74.34
2023-05-24T20:10:50.644Z,74.73
2023-05-24T20:13:17.395Z,75.87
2023-05-24T20:15:44.628Z,75.93
2023-05-24T20:18:11.374Z,76.28
2023-05-24T20:20:38.128Z,77.46
2023-05-24T20:23:04.867Z,79.55
2023-05-24T20:25:31.713Z,78.75
2023-05-24T20:27:58.355Z,78.43
2023-05-24T20:30:25.678Z,78.48
2023-05-24T20:32:52.407Z,79.54
2023-05-24T20:35:19.576Z,79.51
2023-05-24T20:37:46.528Z,81.81
2023-05-24T20:40:20.510Z,82.00
2023-05-24T20:42:47.178Z,82.20
2023-05-24T20:45:15.858Z,84.62
2023-05-24T20:47:42.525Z,85.71
2023-05-24T20:50:09.269Z,85.53
2023-05-24T20:52:36.408Z,85.66
2023-05-24T20:55:03.001Z,86.66
2023-05-24T20:57:29.706Z,86.10
2023-05-24T20:59:56.309Z,86.86
2023-05-24T21:02:22.954Z,85.50
2023-05-24T21:04:49.609Z,86.65
2023-05-24T21:07:16.364Z,87.57
2023-05-24T21:09:42.990Z,86.91
2023-05-24T21:12:09.688Z,87.54
2023-05-24T21:14:36.283Z,87.90
2023-05-24T21:17:03.049Z,86.42
2023-05-24T21:19:29.716Z,87.52
2023-05-24T21:21:56.516Z,87.62
2023-05-24T21:24:23.197Z,88.92
2023-05-24T21:26:49.814Z,89.15
2023-05-24T21:29:16.412Z,88.57
2023-05-24T21:31:43.121Z,90.33
2023-05-24T21:34:09.864Z,90.04
2023-05-24T21:36:37.748Z,90.14
2023-05-24T21:39:08.071Z,89.70
2023-05-24T21:41:36.009Z,89.73
2023-05-24T21:44:03.809Z,90.42
2023-05-24T21:46:30.837Z,89.44
2023-05-24T21:48:57.708Z,90.17
2023-05-24T21:51:24.405Z,90.71
2023-05-24T21:53:51.813Z,91.44
2023-05-24T21:56:18.489Z,91.27
2023-05-24T21:58:45.117Z,91.09
2023-05-24T22:01:11.786Z,91.49
2023-05-24T22:03:38.586Z,90.11
2023-05-24T22:06:05.491Z,90.29
2023-05-24T22:08:32.078Z,90.11
2023-05-24T22:10:58.680Z,90.00
2023-05-24T22:13:25.507Z,89.82
2023-05-24T22:15:52.129Z,90.36
2023-05-24T22:18:21.121Z,91.53
2023-05-24T22:20:50.929Z,91.31
2023-05-24T22:23:17.762Z,91.35
2023-05-24T22:25:44.905Z,91.75
2023-05-24T22:28:11.724Z,92.88
2023-05-24T22:30:38.303Z,92.61
2023-05-24T22:33:04.986Z,92.10
2023-05-24T22:35:32.410Z,92.52
2023-05-24T22:37:59.092Z,93.45
2023-05-24T22:40:25.770Z,93.50
2023-05-24T22:42:52.439Z,94.51
2023-05-24T22:45:19.113Z,94.52
2023-05-24T22:47:49.140Z,93.59
2023-05-24T22:50:16.176Z,94.84
2023-05-24T22:52:43.075Z,94.82
2023-05-24T22:55:11.006Z,94.61
2023-05-24T22:57:37.780Z,94.87
2023-05-24T23:00:05.839Z,96.32
2023-05-24T23:02:33.630Z,98.24
2023-05-24T23:05:00.440Z,99.39
2023-05-24T23:07:27.239Z,100.00
2023-05-24T23:09:54.501Z,100.00
2023-05-24T23:12:21.118Z,100.00
2023-05-24T23:14:47.759Z,99.80
2023-05-24T23:17:14.535Z,99.96
2023-05-24T23:19:42.731Z,100.00
2023-05-24T23:22:12.969Z,100.00
2023-05-24T23:24:42.266Z,100.00
2023-05-24T23:27:09.244Z,99.07
2023-05-24T23:29:35.956Z,99.50
2023-05-24T23:32:02.604Z,99.24
2023-05-24T23:34:29.257Z,99.43
2023-05-24T23:36:55.876Z,99.94
2023-05-24T23:39:22.499Z,100.00
2023-05-24T23:41:49.093Z,100.00
2023-05-24T23:44:16.035Z,99.86
2023-05-24T23:46:42.687Z,100.00
2023-05-24T23:49:09.320Z,100.00
2023-05-24T23:51:36.099Z,100.00
2023-05-24T23:54:02.686Z,100.00
2023-05-24T23:56:29.274Z,100.00
2023-05-24T23:58:56.009Z,100.00
